Koninklijk Nederlands Meteorologisch Instituut; Ministerie van Verkeer en Waterstaat

 
Weer
Nederlandse vliegveldverwachtingen (TAF)
ZCZC
FC220500 EHWO     WOENSDRECHT/WOENSDRECHT   NLD   19 m.
TAF EHWO 220500Z NIL=

ZCZC
FC220500 EHVK     VOLKEL/VOLKEL   NLD   21 m.
TAF EHVK 220543Z 2206/2218 23020G30KT 9999 SCT011 BKN013
    TEMPO 2206/2218 23023G35KT SCT008 BKN010
    PROB40 TEMPO 2206/2218 3500 -DZ SCT005 BKN007 OVC010=

ZCZC
FC220500 EHLW     LEEUWARDEN/LEEUWARDEN   NLD   1 m.
TAF EHLW 220500Z NIL=

ZCZC
FC220500 EHGR     GILZE-RIJEN/GILZE-RIJEN   NLD   14 m.
TAF EHGR 220500Z NIL=

ZCZC
FT220500 EHAM     AMSTERDAM/SCHIPHOL   NLD   -3 m.
TAF EHAM 220459Z 2206/2312 24027G37KT 9999 BKN009 BKN012
    TEMPO 2206/2215 24030G44KT
    PROB40 2208/2212 BKN012
    BECMG 2212/2215 BKN015
    PROB30 TEMPO 2220/2224 6000 -RADZ BKN012=

ZCZC
FT220500 EHBK     MAASTRICHT/MAASTRICHT-AACHEN   NLD   114 m.
TAF EHBK 220458Z 2206/2312 23022G34KT 9999 SCT008 BKN012
    TEMPO 2217/2301 3500 DZ BKN008
    BECMG 2300/2303 BKN015=

ZCZC
FT220500 EHGG     GRONINGEN/EELDE   NLD   5 m.
TAF EHGG 220458Z 2206/2312 24026G38KT 9999 BKN012
    TEMPO 2206/2210 5000 -DZRA BKN008
    BECMG 2210/2213 BKN015
    BECMG 2218/2221 6000 -RADZ BKN012
    PROB40 TEMPO 2220/2301 3500 RADZ DZ BKN008
    BECMG 2302/2305 9999 NSW BKN015=

ZCZC
FT220500 EHRD     ROTTERDAM/THE HAGUE AIRPORT   NLD   -5 m.
TAF EHRD 220459Z 2206/2312 24027G37KT 9999 BKN009 BKN012
    TEMPO 2206/2215 24030G44KT
    PROB40 2208/2212 BKN012
    BECMG 2212/2215 BKN015
    PROB30 TEMPO 2220/2224 6000 -RADZ BKN012=

ZCZC
FT220500 EHEH     EINDHOVEN/EINDHOVEN   NLD   22 m.
TAF EHEH 220528Z 2206/2312 23020G30KT 9999 SCT011 BKN013
    TEMPO 2206/2218 23023G35KT SCT008 BKN010
    PROB40 TEMPO 2206/2218 3500 -DZ SCT005 BKN007 OVC010
    BECMG 2217/2220 SCT015 BKN020
    PROB40 TEMPO 2302/2312 SCT008 BKN012=

ZCZC
FC220600 EHKD     DE KOOY/DE KOOY   NLD   1 m.
TAF EHKD 220435Z 2206/2218 23024G34KT 9999 SCT012 BKN015
    PROB30 TEMPO 2206/2210 4000 -DZ SCT005 BKN007 OVC010
    BECMG 2210/2212 SCT015 BKN020=